createdAt,value
2023-04-23T00:01:22.373Z,6.43
2023-04-23T00:03:52.055Z,6.43
2023-04-23T00:06:22.733Z,6.42
2023-04-23T00:08:57.855Z,6.40
2023-04-23T00:11:27.799Z,6.44
2023-04-23T00:13:57.120Z,6.44
2023-04-23T00:16:26.537Z,6.45
2023-04-23T00:18:55.437Z,6.45
2023-04-23T00:21:24.441Z,6.45
2023-04-23T00:23:53.493Z,6.42
2023-04-23T00:26:22.445Z,6.41
2023-04-23T00:28:51.473Z,6.44
2023-04-23T00:31:22.952Z,6.44
2023-04-23T00:33:51.970Z,6.41
2023-04-23T00:36:20.998Z,6.39
2023-04-23T00:38:51.399Z,6.42
2023-04-23T00:41:20.322Z,6.46
2023-04-23T00:43:52.738Z,6.49
2023-04-23T00:46:22.298Z,6.55
2023-04-23T00:48:51.374Z,6.58
2023-04-23T00:51:23.879Z,6.59
2023-04-23T00:53:52.793Z,6.62
2023-04-23T00:59:52.783Z,6.80
2023-04-23T01:02:21.972Z,6.83
2023-04-23T01:04:51.528Z,6.89
2023-04-23T01:07:20.995Z,6.96
2023-04-23T01:09:52.000Z,6.98
2023-04-23T01:12:20.904Z,7.03
2023-04-23T01:14:50.165Z,7.07
2023-04-23T01:17:19.157Z,7.12
2023-04-23T01:19:48.150Z,7.15
2023-04-23T01:22:17.627Z,7.16
2023-04-23T01:24:47.568Z,7.19
2023-04-23T01:27:16.491Z,7.20
2023-04-23T01:29:45.502Z,7.23
2023-04-23T01:32:15.181Z,7.18
2023-04-23T01:34:47.436Z,7.12
2023-04-23T01:37:17.954Z,7.12
2023-04-23T01:39:46.883Z,7.10
2023-04-23T01:42:17.201Z,7.07
2023-04-23T01:44:46.173Z,7.04
2023-04-23T01:47:15.897Z,6.99
2023-04-23T01:49:44.876Z,6.98
2023-04-23T01:52:13.886Z,6.98
2023-04-23T01:54:42.878Z,6.95
2023-04-23T01:57:13.037Z,6.92
2023-04-23T01:59:42.950Z,6.86
2023-04-23T02:02:14.057Z,6.85
2023-04-23T02:04:46.166Z,6.83
2023-04-23T02:07:15.178Z,6.79
2023-04-23T02:09:43.981Z,6.77
2023-04-23T02:12:12.793Z,6.74
2023-04-23T02:14:41.771Z,6.68
2023-04-23T02:17:11.350Z,6.67
2023-04-23T02:19:41.398Z,6.64
2023-04-23T02:22:10.579Z,6.59
2023-04-23T02:24:39.806Z,6.49
2023-04-23T02:27:09.490Z,6.36
2023-04-23T02:29:38.586Z,6.35
2023-04-23T02:32:07.477Z,6.32
2023-04-23T02:34:36.658Z,6.32
2023-04-23T02:37:06.028Z,6.26
2023-04-23T02:39:34.939Z,6.22
2023-04-23T02:42:03.844Z,6.23
2023-04-23T02:44:33.150Z,6.25
2023-04-23T02:47:02.270Z,6.25
2023-04-23T02:49:31.388Z,6.26
2023-04-23T02:52:00.705Z,6.27
2023-04-23T02:54:29.605Z,6.25
2023-04-23T02:56:59.117Z,6.23
2023-04-23T02:59:27.991Z,6.23
2023-04-23T03:01:56.929Z,6.21
2023-04-23T03:04:26.326Z,6.21
2023-04-23T03:06:55.273Z,6.20
2023-04-23T03:09:24.173Z,6.22
2023-04-23T03:11:53.075Z,6.22
2023-04-23T03:14:22.032Z,6.25
2023-04-23T03:16:51.211Z,6.24
2023-04-23T03:19:20.149Z,6.25
2023-04-23T03:21:49.058Z,6.25
2023-04-23T03:24:18.146Z,6.25
2023-04-23T03:26:47.154Z,6.27
2023-04-23T03:29:17.193Z,6.32
2023-04-23T03:31:46.261Z,6.36
2023-04-23T03:34:15.042Z,6.41
2023-04-23T03:36:45.109Z,6.42
2023-04-23T03:39:14.525Z,6.47
2023-04-23T03:41:51.331Z,6.51
2023-04-23T03:44:22.420Z,6.50
2023-04-23T03:46:52.661Z,6.55
2023-04-23T03:49:23.321Z,6.59
2023-04-23T03:51:52.068Z,6.64
2023-04-23T03:54:21.152Z,6.71
2023-04-23T04:00:41.422Z,6.84
2023-04-23T04:03:11.247Z,6.85
2023-04-23T04:05:40.544Z,6.91
2023-04-23T04:08:09.534Z,6.98
2023-04-23T04:10:38.465Z,7.03
2023-04-23T04:13:07.467Z,7.11
2023-04-23T04:15:36.309Z,7.17
2023-04-23T04:18:05.214Z,7.26
2023-04-23T04:20:34.144Z,7.36
2023-04-23T04:23:03.416Z,7.44
2023-04-23T04:25:32.265Z,7.50
2023-04-23T04:28:01.258Z,7.57
2023-04-23T04:30:30.079Z,7.60
2023-04-23T04:32:58.972Z,7.62
2023-04-23T04:35:28.389Z,7.68
2023-04-23T04:37:57.353Z,7.76
2023-04-23T04:40:28.898Z,7.85
2023-04-23T04:42:57.795Z,7.94
2023-04-23T04:45:26.567Z,8.03
2023-04-23T04:47:55.539Z,8.08
2023-04-23T04:50:24.688Z,8.20
2023-04-23T04:52:53.780Z,8.30
2023-04-23T04:55:22.893Z,8.39
2023-04-23T04:57:51.921Z,8.45
2023-04-23T05:00:29.523Z,8.50
2023-04-23T05:02:59.164Z,8.59
2023-04-23T05:05:51.544Z,8.68
2023-04-23T05:08:22.104Z,8.63
2023-04-23T05:10:51.478Z,8.60
2023-04-23T05:13:20.495Z,8.58
2023-04-23T05:15:49.634Z,8.53
2023-04-23T05:18:18.666Z,8.43
2023-04-23T05:20:48.008Z,8.34
2023-04-23T05:23:16.980Z,8.38
2023-04-23T05:25:46.184Z,8.40
2023-04-23T05:28:15.580Z,8.40
2023-04-23T05:30:45.288Z,8.45
2023-04-23T05:33:17.212Z,8.50
2023-04-23T05:35:47.488Z,8.56
2023-04-23T05:38:16.491Z,8.63
2023-04-23T05:40:45.396Z,8.69
2023-04-23T05:43:18.335Z,8.79
2023-04-23T05:45:49.908Z,8.92
2023-04-23T05:48:23.241Z,9.09
2023-04-23T20:54:00.649Z,11.73
2023-04-23T20:56:30.902Z,11.67
2023-04-23T20:59:00.240Z,11.64
2023-04-23T21:01:28.990Z,11.61
2023-04-23T21:04:00.471Z,11.58
2023-04-23T21:06:31.573Z,11.52
2023-04-23T21:09:00.288Z,11.45
2023-04-23T21:11:29.652Z,11.36
2023-04-23T21:14:00.770Z,11.29
2023-04-23T21:16:29.965Z,11.24
2023-04-23T21:18:58.939Z,11.17
2023-04-23T21:21:29.907Z,11.12
2023-04-23T21:24:01.120Z,11.10
2023-04-23T21:26:31.507Z,11.04
2023-04-23T21:29:00.240Z,10.99
2023-04-23T21:31:48.261Z,10.95
2023-04-23T21:34:17.146Z,10.90
2023-04-23T21:36:46.009Z,10.86
2023-04-23T21:39:15.054Z,10.82
2023-04-23T21:41:45.051Z,10.80
2023-04-23T21:44:13.899Z,10.74
2023-04-23T21:46:43.472Z,10.68
2023-04-23T21:49:12.284Z,10.62
2023-04-23T21:51:41.204Z,10.57
2023-04-23T21:54:09.985Z,10.53
2023-04-23T21:56:38.774Z,10.50
2023-04-23T21:59:07.565Z,10.44
2023-04-23T22:01:36.939Z,10.35
2023-04-23T22:04:05.958Z,10.32
2023-04-23T22:06:35.431Z,10.31
2023-04-23T22:09:04.406Z,10.29
2023-04-23T22:11:34.793Z,10.28
2023-04-23T22:14:03.467Z,10.23
2023-04-23T22:16:32.240Z,10.17
2023-04-23T22:19:01.866Z,10.11
2023-04-23T22:21:31.415Z,10.02
2023-04-23T22:24:00.189Z,9.98
2023-04-23T22:26:28.979Z,9.92
2023-04-23T22:28:57.582Z,9.89
2023-04-23T22:31:26.486Z,9.83
2023-04-23T22:33:55.203Z,9.82
2023-04-23T22:36:25.592Z,9.79
2023-04-23T22:38:55.033Z,9.80
2023-04-23T22:41:23.806Z,9.79
2023-04-23T22:43:54.403Z,9.72
2023-04-23T22:46:23.434Z,9.69
2023-04-23T22:48:52.905Z,9.66
2023-04-23T22:51:21.745Z,9.63
2023-04-23T22:53:50.960Z,9.62
2023-04-23T22:56:20.174Z,9.59
2023-04-23T22:58:48.847Z,9.54
2023-04-23T23:01:18.600Z,9.52
2023-04-23T23:03:47.601Z,9.50
2023-04-23T23:06:17.897Z,9.46
2023-04-23T23:08:46.678Z,9.43
2023-04-23T23:11:15.407Z,9.41
2023-04-23T23:13:45.670Z,9.37
2023-04-23T23:16:14.793Z,9.31
2023-04-23T23:18:43.909Z,9.25
2023-04-23T23:21:12.762Z,9.22
2023-04-23T23:23:41.619Z,9.19
2023-04-23T23:26:10.465Z,9.13
2023-04-23T23:28:39.254Z,9.08
2023-04-23T23:31:08.082Z,9.06
2023-04-23T23:33:36.833Z,9.04
2023-04-23T23:36:07.198Z,9.02
2023-04-23T23:38:35.967Z,8.97
2023-04-23T23:41:04.672Z,8.92
2023-04-23T23:43:33.379Z,8.88
2023-04-23T23:46:02.277Z,8.86
2023-04-23T23:48:30.973Z,8.84
2023-04-23T23:50:59.801Z,8.82
2023-04-23T23:53:28.515Z,8.78
2023-04-23T23:55:57.317Z,8.77
2023-04-23T23:58:26.054Z,8.76
